sensor_id;sensor_type;location;lat;lon;timestamp;pressure;altitude;pressure_sealevel;temperature;humidity
63552;BME280;49698;48.072;7.800;2023-03-07T00:00:25;98438.31;;;3.65;65.31
63552;BME280;49698;48.072;7.800;2023-03-07T00:02:53;98433.00;;;3.65;65.41
63552;BME280;49698;48.072;7.800;2023-03-07T00:05:21;98430.31;;;3.65;65.69
63552;BME280;49698;48.072;7.800;2023-03-07T00:07:50;98433.78;;;3.65;65.29
63552;BME280;49698;48.072;7.800;2023-03-07T00:10:18;98433.00;;;3.65;65.37
63552;BME280;49698;48.072;7.800;2023-03-07T00:12:47;98442.53;;;3.66;65.47
63552;BME280;49698;48.072;7.800;2023-03-07T00:15:15;98427.41;;;3.66;65.67
63552;BME280;49698;48.072;7.800;2023-03-07T00:17:43;98425.81;;;3.65;65.58
63552;BME280;49698;48.072;7.800;2023-03-07T00:20:11;98433.50;;;3.67;65.75
63552;BME280;49698;48.072;7.800;2023-03-07T00:22:41;98429.00;;;3.67;65.41
63552;BME280;49698;48.072;7.800;2023-03-07T00:25:11;98430.06;;;3.66;65.28
63552;BME280;49698;48.072;7.800;2023-03-07T00:27:41;98424.75;;;3.66;65.53
63552;BME280;49698;48.072;7.800;2023-03-07T00:30:09;98431.13;;;3.65;65.45
63552;BME280;49698;48.072;7.800;2023-03-07T00:32:38;98429.53;;;3.64;65.41
63552;BME280;49698;48.072;7.800;2023-03-07T00:35:07;98434.84;;;3.64;65.31
63552;BME280;49698;48.072;7.800;2023-03-07T00:37:35;98436.16;;;3.62;65.16
63552;BME280;49698;48.072;7.800;2023-03-07T00:40:04;98433.78;;;3.60;65.28
63552;BME280;49698;48.072;7.800;2023-03-07T00:42:34;98436.44;;;3.60;65.52
63552;BME280;49698;48.072;7.800;2023-03-07T00:45:03;98432.16;;;3.59;65.39
63552;BME280;49698;48.072;7.800;2023-03-07T00:47:31;98429.25;;;3.61;65.47
63552;BME280;49698;48.072;7.800;2023-03-07T00:49:59;98427.91;;;3.58;65.30
63552;BME280;49698;48.072;7.800;2023-03-07T00:52:27;98429.78;;;3.58;65.58
63552;BME280;49698;48.072;7.800;2023-03-07T00:54:59;98423.66;;;3.57;65.44
63552;BME280;49698;48.072;7.800;2023-03-07T00:57:27;98418.34;;;3.57;65.43
63552;BME280;49698;48.072;7.800;2023-03-07T00:59:56;98423.66;;;3.57;65.49
63552;BME280;49698;48.072;7.800;2023-03-07T01:02:24;98422.88;;;3.57;65.47
63552;BME280;49698;48.072;7.800;2023-03-07T01:04:52;98417.56;;;3.57;65.31
63552;BME280;49698;48.072;7.800;2023-03-07T01:07:20;98423.66;;;3.57;65.54
63552;BME280;49698;48.072;7.800;2023-03-07T01:09:49;98418.34;;;3.57;65.52
63552;BME280;49698;48.072;7.800;2023-03-07T01:12:18;98411.44;;;3.56;65.44
63552;BME280;49698;48.072;7.800;2023-03-07T01:14:49;98415.94;;;3.56;65.34
63552;BME280;49698;48.072;7.800;2023-03-07T01:17:19;98410.88;;;3.54;65.54
63552;BME280;49698;48.072;7.800;2023-03-07T01:19:47;98413.56;;;3.54;65.34
63552;BME280;49698;48.072;7.800;2023-03-07T01:22:15;98411.69;;;3.55;65.33
63552;BME280;49698;48.072;7.800;2023-03-07T01:24:43;98416.75;;;3.56;65.20
63552;BME280;49698;48.072;7.800;2023-03-07T01:27:13;98406.13;;;3.56;65.18
63552;BME280;49698;48.072;7.800;2023-03-07T01:29:41;98400.81;;;3.56;65.09
63552;BME280;49698;48.072;7.800;2023-03-07T01:32:09;98395.50;;;3.56;65.27
63552;BME280;49698;48.072;7.800;2023-03-07T01:34:39;98388.56;;;3.55;65.22
63552;BME280;49698;48.072;7.800;2023-03-07T01:37:07;98384.59;;;3.58;65.28
63552;BME280;49698;48.072;7.800;2023-03-07T01:39:35;98381.16;;;3.57;65.20
63552;BME280;49698;48.072;7.800;2023-03-07T01:42:06;98370.53;;;3.57;64.99
63552;BME280;49698;48.072;7.800;2023-03-07T01:44:57;98365.22;;;3.57;64.97
63552;BME280;49698;48.072;7.800;2023-03-07T01:47:33;98364.41;;;3.57;65.09
63552;BME280;49698;48.072;7.800;2023-03-07T01:50:06;98365.22;;;3.57;65.04
63552;BME280;49698;48.072;7.800;2023-03-07T01:52:37;98361.75;;;3.57;65.32
63552;BME280;49698;48.072;7.800;2023-03-07T01:55:11;98359.09;;;3.57;65.31
63552;BME280;49698;48.072;7.800;2023-03-07T01:57:46;98354.56;;;3.57;65.21
63552;BME280;49698;48.072;7.800;2023-03-07T02:00:18;98351.66;;;3.59;65.01
63552;BME280;49698;48.072;7.800;2023-03-07T02:03:01;98343.94;;;3.57;65.09
63552;BME280;49698;48.072;7.800;2023-03-07T02:05:36;98337.03;;;3.56;65.37
63552;BME280;49698;48.072;7.800;2023-03-07T02:08:06;98336.22;;;3.56;65.43
63552;BME280;49698;48.072;7.800;2023-03-07T02:10:36;98340.75;;;3.55;65.35
63552;BME280;49698;48.072;7.800;2023-03-07T02:13:05;98338.09;;;3.55;65.18
63552;BME280;49698;48.072;7.800;2023-03-07T02:15:34;98335.44;;;3.55;65.33
63552;BME280;49698;48.072;7.800;2023-03-07T02:18:03;98335.44;;;3.55;65.41
63552;BME280;49698;48.072;7.800;2023-03-07T02:20:38;98332.25;;;3.53;65.66
63552;BME280;49698;48.072;7.800;2023-03-07T02:23:16;98330.63;;;3.52;65.57
63552;BME280;49698;48.072;7.800;2023-03-07T02:25:49;98327.97;;;3.52;65.66
63552;BME280;49698;48.072;7.800;2023-03-07T02:28:24;98333.28;;;3.52;65.48
63552;BME280;49698;48.072;7.800;2023-03-07T02:30:53;98330.63;;;3.52;65.39
63552;BME280;49698;48.072;7.800;2023-03-07T02:33:23;98322.66;;;3.52;65.47
63552;BME280;49698;48.072;7.800;2023-03-07T02:36:01;98318.41;;;3.51;65.54
63552;BME280;49698;48.072;7.800;2023-03-07T02:38:32;98325.31;;;3.52;65.59
63552;BME280;49698;48.072;7.800;2023-03-07T02:41:03;98320.00;;;3.52;65.46
63552;BME280;49698;48.072;7.800;2023-03-07T02:43:35;98325.31;;;3.52;65.40
63552;BME280;49698;48.072;7.800;2023-03-07T02:46:04;98322.66;;;3.52;65.52
63552;BME280;49698;48.072;7.800;2023-03-07T02:48:32;98329.84;;;3.52;65.76
63552;BME280;49698;48.072;7.800;2023-03-07T02:51:00;98322.66;;;3.52;65.53
63552;BME280;49698;48.072;7.800;2023-03-07T02:53:28;98317.34;;;3.52;65.55
63552;BME280;49698;48.072;7.800;2023-03-07T02:55:56;98316.84;;;3.50;65.58
63552;BME280;49698;48.072;7.800;2023-03-07T02:58:24;98313.91;;;3.52;65.53
63552;BME280;49698;48.072;7.800;2023-03-07T03:00:53;98307.78;;;3.51;65.42
63552;BME280;49698;48.072;7.800;2023-03-07T03:03:21;98307.78;;;3.51;65.74
63552;BME280;49698;48.072;7.800;2023-03-07T03:05:49;98307.78;;;3.51;65.68
63552;BME280;49698;48.072;7.800;2023-03-07T03:08:17;98309.38;;;3.52;65.72
63552;BME280;49698;48.072;7.800;2023-03-07T03:10:51;98302.47;;;3.51;65.54
63552;BME280;49698;48.072;7.800;2023-03-07T03:13:21;98291.84;;;3.51;65.59
63552;BME280;49698;48.072;7.800;2023-03-07T03:15:55;98299.81;;;3.51;65.51
63552;BME280;49698;48.072;7.800;2023-03-07T03:18:24;98297.16;;;3.51;65.48
63552;BME280;49698;48.072;7.800;2023-03-07T03:20:54;98300.88;;;3.50;65.53
63552;BME280;49698;48.072;7.800;2023-03-07T03:23:22;98291.84;;;3.51;65.31
63552;BME280;49698;48.072;7.800;2023-03-07T03:25:56;98293.44;;;3.52;65.49
63552;BME280;49698;48.072;7.800;2023-03-07T03:28:27;98288.13;;;3.52;65.54
63552;BME280;49698;48.072;7.800;2023-03-07T03:30:59;98288.94;;;3.53;65.38
63552;BME280;49698;48.072;7.800;2023-03-07T03:33:28;98288.94;;;3.53;65.39
63552;BME280;49698;48.072;7.800;2023-03-07T03:35:58;98283.88;;;3.51;65.28
63552;BME280;49698;48.072;7.800;2023-03-07T03:38:27;98291.06;;;3.51;65.41
63552;BME280;49698;48.072;7.800;2023-03-07T03:40:55;98289.19;;;3.51;65.47
63552;BME280;49698;48.072;7.800;2023-03-07T03:43:23;98284.94;;;3.50;65.18
63552;BME280;49698;48.072;7.800;2023-03-07T03:45:54;98279.63;;;3.50;65.34
63552;BME280;49698;48.072;7.800;2023-03-07T03:48:26;98274.31;;;3.50;65.16
63552;BME280;49698;48.072;7.800;2023-03-07T03:51:01;98276.19;;;3.50;65.26
63552;BME280;49698;48.072;7.800;2023-03-07T03:53:30;98273.78;;;3.48;65.12
63552;BME280;49698;48.072;7.800;2023-03-07T03:56:03;98272.75;;;3.49;65.10
63552;BME280;49698;48.072;7.800;2023-03-07T03:58:32;98265.81;;;3.48;65.15
63552;BME280;49698;48.072;7.800;2023-03-07T04:01:00;98274.84;;;3.47;65.20
63552;BME280;49698;48.072;7.800;2023-03-07T04:03:33;98265.00;;;3.48;64.99
63552;BME280;49698;48.072;7.800;2023-03-07T04:06:02;98268.75;;;3.47;64.90
63552;BME280;49698;48.072;7.800;2023-03-07T04:08:31;98261.03;;;3.45;64.93
63552;BME280;49698;48.072;7.800;2023-03-07T04:11:00;98254.91;;;3.44;64.65
63552;BME280;49698;48.072;7.800;2023-03-07T04:13:28;98256.78;;;3.44;64.77
63552;BME280;49698;48.072;7.800;2023-03-07T04:15:56;98254.91;;;3.44;64.70
63552;BME280;49698;48.072;7.800;2023-03-07T04:18:24;98259.44;;;3.44;64.49
63552;BME280;49698;48.072;7.800;2023-03-07T04:20:53;98250.41;;;3.45;64.44
63552;BME280;49698;48.072;7.800;2023-03-07T04:23:23;98245.09;;;3.45;64.37
63552;BME280;49698;48.072;7.800;2023-03-07T04:25:53;98235.50;;;3.44;64.15
63552;BME280;49698;48.072;7.800;2023-03-07T04:28:22;98239.78;;;3.45;64.16
63552;BME280;49698;48.072;7.800;2023-03-07T04:30:52;98233.66;;;3.44;64.08
63552;BME280;49698;48.072;7.800;2023-03-07T04:33:22;98239.78;;;3.45;64.33
63552;BME280;49698;48.072;7.800;2023-03-07T04:35:54;98233.41;;;3.46;64.11
63552;BME280;49698;48.072;7.800;2023-03-07T04:38:22;98227.31;;;3.46;63.85
63552;BME280;49698;48.072;7.800;2023-03-07T04:40:50;98231.00;;;3.44;64.14
63552;BME280;49698;48.072;7.800;2023-03-07T04:43:18;98222.25;;;3.44;63.98
63552;BME280;49698;48.072;7.800;2023-03-07T04:45:47;98219.34;;;3.46;64.03
63552;BME280;49698;48.072;7.800;2023-03-07T04:48:15;98223.84;;;3.45;63.85
63552;BME280;49698;48.072;7.800;2023-03-07T04:50:43;98226.50;;;3.45;63.81
63552;BME280;49698;48.072;7.800;2023-03-07T04:53:12;98220.13;;;3.46;64.06
63552;BME280;49698;48.072;7.800;2023-03-07T04:55:40;98230.75;;;3.46;64.08
63552;BME280;49698;48.072;7.800;2023-03-07T04:58:08;98231.53;;;3.47;64.04
63552;BME280;49698;48.072;7.800;2023-03-07T05:00:39;98231.28;;;3.48;63.93
63552;BME280;49698;48.072;7.800;2023-03-07T05:03:09;98229.69;;;3.47;64.03
63552;BME280;49698;48.072;7.800;2023-03-07T05:05:37;98232.34;;;3.47;63.99
63552;BME280;49698;48.072;7.800;2023-03-07T05:08:06;98239.25;;;3.48;63.75
63552;BME280;49698;48.072;7.800;2023-03-07T05:10:35;98233.13;;;3.48;64.10
63552;BME280;49698;48.072;7.800;2023-03-07T05:13:03;98238.44;;;3.48;64.01
63552;BME280;49698;48.072;7.800;2023-03-07T05:15:32;98232.34;;;3.47;63.90
63552;BME280;49698;48.072;7.800;2023-03-07T05:18:00;98227.03;;;3.47;64.11
63552;BME280;49698;48.072;7.800;2023-03-07T05:20:28;98229.69;;;3.47;64.30
63552;BME280;49698;48.072;7.800;2023-03-07T05:22:56;98231.28;;;3.48;63.99
63552;BME280;49698;48.072;7.800;2023-03-07T05:25:24;98227.03;;;3.47;64.01
63552;BME280;49698;48.072;7.800;2023-03-07T05:27:53;98220.91;;;3.47;64.07
63552;BME280;49698;48.072;7.800;2023-03-07T05:30:21;98224.13;;;3.49;63.58
63552;BME280;49698;48.072;7.800;2023-03-07T05:32:49;98220.66;;;3.48;63.96
63552;BME280;49698;48.072;7.800;2023-03-07T05:35:18;98218.00;;;3.48;63.88
63552;BME280;49698;48.072;7.800;2023-03-07T05:37:46;98211.63;;;3.49;63.74
63552;BME280;49698;48.072;7.800;2023-03-07T05:40:14;98203.66;;;3.49;63.72
63552;BME280;49698;48.072;7.800;2023-03-07T05:42:45;98211.63;;;3.49;63.84
63552;BME280;49698;48.072;7.800;2023-03-07T05:45:15;98208.19;;;3.49;63.80
63552;BME280;49698;48.072;7.800;2023-03-07T05:47:43;98199.94;;;3.50;63.64
63552;BME280;49698;48.072;7.800;2023-03-07T05:50:12;98201.81;;;3.50;63.68
63552;BME280;49698;48.072;7.800;2023-03-07T05:52:41;98197.56;;;3.49;63.73
63552;BME280;49698;48.072;7.800;2023-03-07T05:55:09;98203.13;;;3.47;63.80
63552;BME280;49698;48.072;7.800;2023-03-07T05:57:37;98193.28;;;3.48;63.85
63552;BME280;49698;48.072;7.800;2023-03-07T06:00:06;98193.56;;;3.46;64.00
63552;BME280;49698;48.072;7.800;2023-03-07T06:02:47;98194.34;;;3.47;64.03
63552;BME280;49698;48.072;7.800;2023-03-07T06:05:16;98190.91;;;3.46;63.82
63552;BME280;49698;48.072;7.800;2023-03-07T06:07:44;98193.00;;;3.44;63.76
63552;BME280;49698;48.072;7.800;2023-03-07T06:10:13;98201.53;;;3.46;63.90
63552;BME280;49698;48.072;7.800;2023-03-07T06:12:41;98197.28;;;3.45;63.96
63552;BME280;49698;48.072;7.800;2023-03-07T06:15:10;98199.94;;;3.45;63.90
63552;BME280;49698;48.072;7.800;2023-03-07T06:17:38;98205.25;;;3.45;63.80
63552;BME280;49698;48.072;7.800;2023-03-07T06:20:10;98202.59;;;3.45;63.89
63552;BME280;49698;48.072;7.800;2023-03-07T06:22:38;98198.88;;;3.46;63.60
63552;BME280;49698;48.072;7.800;2023-03-07T06:25:08;98206.56;;;3.48;63.40
63552;BME280;49698;48.072;7.800;2023-03-07T06:27:37;98203.66;;;3.49;63.77
63552;BME280;49698;48.072;7.800;2023-03-07T06:30:07;98199.38;;;3.48;63.32
63552;BME280;49698;48.072;7.800;2023-03-07T06:32:35;98205.25;;;3.50;63.47
63552;BME280;49698;48.072;7.800;2023-03-07T06:35:06;98200.72;;;3.51;63.47
63552;BME280;49698;48.072;7.800;2023-03-07T06:37:36;98200.44;;;3.52;63.56
63552;BME280;49698;48.072;7.800;2023-03-07T06:40:05;98180.81;;;3.53;63.44
63552;BME280;49698;48.072;7.800;2023-03-07T06:42:36;98180.28;;;3.56;63.43
63552;BME280;49698;48.072;7.800;2023-03-07T06:45:05;98190.63;;;3.58;63.28
63552;BME280;49698;48.072;7.800;2023-03-07T06:47:33;98186.13;;;3.58;63.50
63552;BME280;49698;48.072;7.800;2023-03-07T06:50:04;98190.91;;;3.61;63.12
63552;BME280;49698;48.072;7.800;2023-03-07T06:52:33;98174.97;;;3.61;62.64
63552;BME280;49698;48.072;7.800;2023-03-07T06:55:03;98174.16;;;3.61;62.85
63552;BME280;49698;48.072;7.800;2023-03-07T06:57:32;98173.88;;;3.62;62.83
63552;BME280;49698;48.072;7.800;2023-03-07T07:00:01;98172.03;;;3.68;62.74
63552;BME280;49698;48.072;7.800;2023-03-07T07:02:31;98169.63;;;3.72;62.70
63552;BME280;49698;48.072;7.800;2023-03-07T07:04:59;98172.81;;;3.74;62.23
63552;BME280;49698;48.072;7.800;2023-03-07T07:07:28;98175.47;;;3.74;62.41
63552;BME280;49698;48.072;7.800;2023-03-07T07:09:57;98178.69;;;3.76;62.14
63552;BME280;49698;48.072;7.800;2023-03-07T07:12:28;98186.66;;;3.76;62.06
63552;BME280;49698;48.072;7.800;2023-03-07T07:14:56;98192.47;;;3.78;61.67
63552;BME280;49698;48.072;7.800;2023-03-07T07:17:29;98179.97;;;3.78;61.69
63552;BME280;49698;48.072;7.800;2023-03-07T07:19:57;98188.50;;;3.80;61.72
63552;BME280;49698;48.072;7.800;2023-03-07T07:22:25;98190.09;;;3.81;61.70
63552;BME280;49698;48.072;7.800;2023-03-07T07:24:53;98182.66;;;3.83;61.45
63552;BME280;49698;48.072;7.800;2023-03-07T07:27:21;98186.63;;;3.86;61.34
63552;BME280;49698;48.072;7.800;2023-03-07T07:29:51;98196.72;;;3.89;61.38
63552;BME280;49698;48.072;7.800;2023-03-07T07:32:19;98188.72;;;3.94;61.22
63552;BME280;49698;48.072;7.800;2023-03-07T07:34:48;98184.47;;;3.98;61.07
63552;BME280;49698;48.072;7.800;2023-03-07T07:37:15;98183.94;;;4.01;60.90
63552;BME280;49698;48.072;7.800;2023-03-07T07:39:43;98184.47;;;4.03;60.77
63552;BME280;49698;48.072;7.800;2023-03-07T07:42:12;98187.09;;;4.08;60.76
63552;BME280;49698;48.072;7.800;2023-03-07T07:44:54;98186.28;;;4.13;60.52
63552;BME280;49698;48.072;7.800;2023-03-07T07:47:22;98186.56;;;4.16;60.34
63552;BME280;49698;48.072;7.800;2023-03-07T07:49:50;98192.13;;;4.20;60.21
63552;BME280;49698;48.072;7.800;2023-03-07T07:52:19;98189.72;;;4.24;59.80
63552;BME280;49698;48.072;7.800;2023-03-07T07:54:47;98182.78;;;4.28;59.79
63552;BME280;49698;48.072;7.800;2023-03-07T07:57:15;98179.06;;;4.29;59.58
63552;BME280;49698;48.072;7.800;2023-03-07T07:59:43;98180.66;;;4.30;59.41
63552;BME280;49698;48.072;7.800;2023-03-07T08:02:12;98186.50;;;4.32;59.45
63552;BME280;49698;48.072;7.800;2023-03-07T08:04:41;98185.19;;;4.34;59.18
63552;BME280;49698;48.072;7.800;2023-03-07T08:07:08;98177.97;;;4.35;59.06
63552;BME280;49698;48.072;7.800;2023-03-07T08:09:37;98191.78;;;4.37;59.10
63552;BME280;49698;48.072;7.800;2023-03-07T08:12:05;98191.53;;;4.38;59.24
63552;BME280;49698;48.072;7.800;2023-03-07T08:14:33;98192.84;;;4.41;59.11
63552;BME280;49698;48.072;7.800;2023-03-07T08:17:01;98183.81;;;4.42;58.73
63552;BME280;49698;48.072;7.800;2023-03-07T08:19:31;98195.25;;;4.43;58.55
63552;BME280;49698;48.072;7.800;2023-03-07T08:21:59;98183.81;;;4.42;58.70
63552;BME280;49698;48.072;7.800;2023-03-07T08:24:27;98179.53;;;4.46;58.61
63552;BME280;49698;48.072;7.800;2023-03-07T08:27:06;98179.78;;;4.50;58.61
63552;BME280;49698;48.072;7.800;2023-03-07T08:29:34;98174.72;;;4.53;58.38
63552;BME280;49698;48.072;7.800;2023-03-07T08:32:02;98174.16;;;4.56;58.12
63552;BME280;49698;48.072;7.800;2023-03-07T08:34:32;98172.03;;;4.58;57.77
63552;BME280;49698;48.072;7.800;2023-03-07T08:37:00;98166.16;;;4.61;57.38
63552;BME280;49698;48.072;7.800;2023-03-07T08:39:28;98164.56;;;4.65;57.38
63552;BME280;49698;48.072;7.800;2023-03-07T08:41:56;98164.75;;;4.74;57.47
63552;BME280;49698;48.072;7.800;2023-03-07T08:44:25;98163.94;;;4.79;57.24
63552;BME280;49698;48.072;7.800;2023-03-07T08:46:53;98165.25;;;4.81;56.97
63552;BME280;49698;48.072;7.800;2023-03-07T08:49:20;98151.16;;;4.81;56.72
63552;BME280;49698;48.072;7.800;2023-03-07T08:51:50;98150.06;;;4.82;56.43
63552;BME280;49698;48.072;7.800;2023-03-07T08:54:17;98152.44;;;4.83;56.63
63552;BME280;49698;48.072;7.800;2023-03-07T08:56:45;98153.25;;;4.84;56.43
63552;BME280;49698;48.072;7.800;2023-03-07T08:59:13;98150.28;;;4.90;56.45
63552;BME280;49698;48.072;7.800;2023-03-07T09:01:41;98152.13;;;4.95;56.40
63552;BME280;49698;48.072;7.800;2023-03-07T09:04:09;98146.78;;;5.00;56.52
63552;BME280;49698;48.072;7.800;2023-03-07T09:06:37;98148.34;;;5.01;56.42
63552;BME280;49698;48.072;7.800;2023-03-07T09:09:07;98154.47;;;5.02;56.51
63552;BME280;49698;48.072;7.800;2023-03-07T09:11:35;98147.81;;;5.04;56.65
63552;BME280;49698;48.072;7.800;2023-03-07T09:14:03;98148.59;;;5.05;56.55
63552;BME280;49698;48.072;7.800;2023-03-07T09:16:31;98146.72;;;5.05;56.61
63552;BME280;49698;48.072;7.800;2023-03-07T09:18:59;98149.91;;;5.07;56.85
63552;BME280;49698;48.072;7.800;2023-03-07T09:21:26;98142.16;;;5.11;56.82
63552;BME280;49698;48.072;7.800;2023-03-07T09:23:55;98151.47;;;5.13;56.45
63552;BME280;49698;48.072;7.800;2023-03-07T09:26:24;98141.59;;;5.14;56.35
63552;BME280;49698;48.072;7.800;2023-03-07T09:28:52;98146.09;;;5.19;56.81
63552;BME280;49698;48.072;7.800;2023-03-07T09:31:20;98146.06;;;5.24;56.35
63552;BME280;49698;48.072;7.800;2023-03-07T09:33:48;98139.84;;;5.33;56.07
63552;BME280;49698;48.072;7.800;2023-03-07T09:36:17;98139.25;;;5.42;56.48
63552;BME280;49698;48.072;7.800;2023-03-07T09:38:46;98134.91;;;5.51;55.55
63552;BME280;49698;48.072;7.800;2023-03-07T09:41:25;98134.81;;;5.61;55.81
63552;BME280;49698;48.072;7.800;2023-03-07T09:44:02;98133.94;;;5.71;55.10
63552;BME280;49698;48.072;7.800;2023-03-07T09:47:01;98125.06;;;5.75;54.85
63552;BME280;49698;48.072;7.800;2023-03-07T09:49:39;98123.97;;;5.81;54.71
63552;BME280;49698;48.072;7.800;2023-03-07T09:52:13;98131.59;;;5.88;54.58
63552;BME280;49698;48.072;7.800;2023-03-07T09:54:45;98120.34;;;5.96;54.61
63552;BME280;49698;48.072;7.800;2023-03-07T09:57:17;98118.09;;;6.08;53.75
63552;BME280;49698;48.072;7.800;2023-03-07T09:59:50;98115.13;;;6.10;53.82
63552;BME280;49698;48.072;7.800;2023-03-07T10:02:23;98115.81;;;6.21;53.37
63552;BME280;49698;48.072;7.800;2023-03-07T10:05:00;98122.88;;;6.30;52.98
63552;BME280;49698;48.072;7.800;2023-03-07T10:07:31;98116.13;;;6.38;52.70
63552;BME280;49698;48.072;7.800;2023-03-07T10:10:01;98119.53;;;6.44;52.33
63552;BME280;49698;48.072;7.800;2023-03-07T10:12:42;98110.66;;;6.48;51.99
63552;BME280;49698;48.072;7.800;2023-03-07T10:15:34;98113.47;;;6.57;51.88
63552;BME280;49698;48.072;7.800;2023-03-07T10:18:28;98109.94;;;6.61;51.90
63552;BME280;49698;48.072;7.800;2023-03-07T10:20:58;98109.38;;;6.65;50.98
63552;BME280;49698;48.072;7.800;2023-03-07T10:23:39;98104.81;;;6.65;50.79
63552;BME280;49698;48.072;7.800;2023-03-07T10:26:11;98099.69;;;6.69;49.79
63552;BME280;49698;48.072;7.800;2023-03-07T10:28:45;98097.53;;;6.71;50.37
63552;BME280;49698;48.072;7.800;2023-03-07T10:31:18;98103.31;;;6.78;49.89
63552;BME280;49698;48.072;7.800;2023-03-07T10:33:49;98098.19;;;6.81;49.87
63552;BME280;49698;48.072;7.800;2023-03-07T10:36:19;98098.19;;;6.81;49.83
63552;BME280;49698;48.072;7.800;2023-03-07T10:38:53;98100.88;;;6.81;49.56
63552;BME280;49698;48.072;7.800;2023-03-07T10:41:23;98105.34;;;6.86;49.51
63552;BME280;49698;48.072;7.800;2023-03-07T10:43:53;98096.22;;;6.87;49.27
63552;BME280;49698;48.072;7.800;2023-03-07T10:46:24;98090.34;;;7.04;48.77
63552;BME280;49698;48.072;7.800;2023-03-07T10:48:55;98095.56;;;7.28;47.98
63552;BME280;49698;48.072;7.800;2023-03-07T10:51:36;98090.91;;;7.66;47.06
63552;BME280;49698;48.072;7.800;2023-03-07T10:54:12;98102.16;;;8.09;45.24
63552;BME280;49698;48.072;7.800;2023-03-07T10:57:01;98092.47;;;8.36;44.17
63552;BME280;49698;48.072;7.800;2023-03-07T10:59:31;98093.66;;;8.57;43.32
63552;BME280;49698;48.072;7.800;2023-03-07T11:02:01;98083.84;;;8.89;42.81
63552;BME280;49698;48.072;7.800;2023-03-07T11:04:43;98085.75;;;9.11;42.95
63552;BME280;49698;48.072;7.800;2023-03-07T11:07:24;98081.53;;;9.19;42.69
63552;BME280;49698;48.072;7.800;2023-03-07T11:09:55;98083.53;;;9.36;42.21
63552;BME280;49698;48.072;7.800;2023-03-07T11:12:25;98067.16;;;9.68;41.84
63552;BME280;49698;48.072;7.800;2023-03-07T11:14:56;98084.28;;;9.98;41.12
63552;BME280;49698;48.072;7.800;2023-03-07T11:17:27;98080.09;;;10.15;40.15
63552;BME280;49698;48.072;7.800;2023-03-07T11:20:17;98082.38;;;10.30;39.56
63552;BME280;49698;48.072;7.800;2023-03-07T11:22:46;98069.41;;;10.32;40.07
63552;BME280;49698;48.072;7.800;2023-03-07T11:25:16;98065.06;;;10.14;39.88
63552;BME280;49698;48.072;7.800;2023-03-07T11:27:50;98077.38;;;10.06;39.12
63552;BME280;49698;48.072;7.800;2023-03-07T11:30:22;98076.47;;;9.79;39.77
63552;BME280;49698;48.072;7.800;2023-03-07T11:33:07;98070.13;;;9.67;39.91
63552;BME280;49698;48.072;7.800;2023-03-07T11:35:57;98066.19;;;9.64;39.31
63552;BME280;49698;48.072;7.800;2023-03-07T11:38:40;98063.72;;;9.45;40.08
63552;BME280;49698;48.072;7.800;2023-03-07T11:41:13;98053.56;;;9.34;40.50
63552;BME280;49698;48.072;7.800;2023-03-07T11:43:53;98046.03;;;9.44;40.80
63552;BME280;49698;48.072;7.800;2023-03-07T11:46:36;98044.88;;;9.68;40.84
63552;BME280;49698;48.072;7.800;2023-03-07T11:49:17;98040.22;;;9.91;40.06
63552;BME280;49698;48.072;7.800;2023-03-07T11:51:58;98032.97;;;9.91;40.42
63552;BME280;49698;48.072;7.800;2023-03-07T11:54:35;98023.94;;;9.87;40.66
63552;BME280;49698;48.072;7.800;2023-03-07T11:57:18;98022.88;;;10.05;40.21
63552;BME280;49698;48.072;7.800;2023-03-07T12:00:02;98018.72;;;10.39;39.76
63552;BME280;49698;48.072;7.800;2023-03-07T12:02:55;98011.75;;;10.56;39.28
63552;BME280;49698;48.072;7.800;2023-03-07T12:05:41;98006.88;;;10.58;38.71
63552;BME280;49698;48.072;7.800;2023-03-07T12:08:36;98005.44;;;10.43;38.02
63552;BME280;49698;48.072;7.800;2023-03-07T12:11:19;97999.91;;;10.31;37.60
63552;BME280;49698;48.072;7.800;2023-03-07T12:13:55;98004.34;;;10.35;37.28
63552;BME280;49698;48.072;7.800;2023-03-07T12:16:35;97999.06;;;10.04;36.77
63552;BME280;49698;48.072;7.800;2023-03-07T12:19:29;97995.31;;;9.57;37.37
63552;BME280;49698;48.072;7.800;2023-03-07T12:22:22;97985.09;;;9.36;38.30
63552;BME280;49698;48.072;7.800;2023-03-07T12:25:25;97993.09;;;9.59;38.03
63552;BME280;49698;48.072;7.800;2023-03-07T12:28:03;97982.69;;;9.66;38.02
63552;BME280;49698;48.072;7.800;2023-03-07T12:30:43;97976.88;;;9.72;38.06
63552;BME280;49698;48.072;7.800;2023-03-07T12:33:20;97981.75;;;9.62;38.18
63552;BME280;49698;48.072;7.800;2023-03-07T12:35:57;97978.66;;;9.37;38.19
63552;BME280;49698;48.072;7.800;2023-03-07T12:38:35;97982.81;;;9.21;38.43
63552;BME280;49698;48.072;7.800;2023-03-07T12:41:12;97965.09;;;9.02;38.47
63552;BME280;49698;48.072;7.800;2023-03-07T12:43:48;97954.97;;;8.99;38.85
63552;BME280;49698;48.072;7.800;2023-03-07T12:46:22;97947.91;;;9.03;39.08
63552;BME280;49698;48.072;7.800;2023-03-07T12:48:53;97945.22;;;9.03;39.09
63552;BME280;49698;48.072;7.800;2023-03-07T12:51:30;97938.09;;;8.99;39.03
63552;BME280;49698;48.072;7.800;2023-03-07T12:54:06;97930.09;;;9.07;39.14
63552;BME280;49698;48.072;7.800;2023-03-07T12:56:45;97934.09;;;9.19;38.73
63552;BME280;49698;48.072;7.800;2023-03-07T12:59:15;97935.00;;;9.45;38.78
63552;BME280;49698;48.072;7.800;2023-03-07T13:01:46;97938.66;;;9.75;38.12
63552;BME280;49698;48.072;7.800;2023-03-07T13:04:17;97937.59;;;9.85;38.18
63552;BME280;49698;48.072;7.800;2023-03-07T13:06:50;97929.22;;;9.78;38.07
63552;BME280;49698;48.072;7.800;2023-03-07T13:09:22;97928.09;;;9.79;38.22
63552;BME280;49698;48.072;7.800;2023-03-07T13:12:08;97925.91;;;9.81;38.31
63552;BME280;49698;48.072;7.800;2023-03-07T13:14:49;97930.66;;;9.84;38.30
63552;BME280;49698;48.072;7.800;2023-03-07T13:17:58;97925.41;;;9.79;38.47
63552;BME280;49698;48.072;7.800;2023-03-07T13:20:38;97920.50;;;9.64;38.75
63552;BME280;49698;48.072;7.800;2023-03-07T13:23:21;97923.34;;;9.59;39.03
63552;BME280;49698;48.072;7.800;2023-03-07T13:25:55;97935.78;;;9.54;39.15
63552;BME280;49698;48.072;7.800;2023-03-07T13:28:36;97923.78;;;9.52;39.35
63552;BME280;49698;48.072;7.800;2023-03-07T13:31:25;97925.69;;;9.60;39.79
63552;BME280;49698;48.072;7.800;2023-03-07T13:49:10;97921.22;;;10.39;37.93